sensor_id;sensor_type;location;lat;lon;timestamp;P1;durP1;ratioP1;P2;durP2;ratioP2
51148;SDS011;37210;50.058;8.688;2022-12-05T00:02:12;18.25;;;15.43;;
51148;SDS011;37210;50.058;8.688;2022-12-05T00:04:59;17.38;;;15.48;;
51148;SDS011;37210;50.058;8.688;2022-12-05T00:07:47;16.92;;;14.50;;
51148;SDS011;37210;50.058;8.688;2022-12-05T00:10:35;16.52;;;14.65;;
51148;SDS011;37210;50.058;8.688;2022-12-05T00:13:24;19.35;;;15.40;;
51148;SDS011;37210;50.058;8.688;2022-12-05T00:16:13;18.73;;;15.68;;
51148;SDS011;37210;50.058;8.688;2022-12-05T00:19:04;18.67;;;15.55;;
51148;SDS011;37210;50.058;8.688;2022-12-05T00:21:54;19.10;;;15.73;;
51148;SDS011;37210;50.058;8.688;2022-12-05T00:24:42;16.15;;;14.45;;
51148;SDS011;37210;50.058;8.688;2022-12-05T00:27:30;19.85;;;15.65;;
51148;SDS011;37210;50.058;8.688;2022-12-05T00:30:19;17.73;;;14.98;;
51148;SDS011;37210;50.058;8.688;2022-12-05T00:33:07;17.30;;;14.65;;
51148;SDS011;37210;50.058;8.688;2022-12-05T00:35:55;17.70;;;15.77;;
51148;SDS011;37210;50.058;8.688;2022-12-05T00:38:48;19.08;;;15.82;;
51148;SDS011;37210;50.058;8.688;2022-12-05T00:41:37;16.33;;;14.02;;
51148;SDS011;37210;50.058;8.688;2022-12-05T00:44:25;16.35;;;14.27;;
51148;SDS011;37210;50.058;8.688;2022-12-05T00:47:14;18.35;;;15.45;;
51148;SDS011;37210;50.058;8.688;2022-12-05T00:50:02;17.20;;;13.82;;
51148;SDS011;37210;50.058;8.688;2022-12-05T00:52:50;17.55;;;14.88;;
51148;SDS011;37210;50.058;8.688;2022-12-05T00:55:38;17.92;;;15.35;;
51148;SDS011;37210;50.058;8.688;2022-12-05T00:58:26;17.20;;;14.40;;
51148;SDS011;37210;50.058;8.688;2022-12-05T01:01:14;16.58;;;14.43;;
51148;SDS011;37210;50.058;8.688;2022-12-05T01:04:07;15.77;;;13.95;;
51148;SDS011;37210;50.058;8.688;2022-12-05T01:07:05;18.40;;;15.13;;
51148;SDS011;37210;50.058;8.688;2022-12-05T01:09:53;17.13;;;14.43;;
51148;SDS011;37210;50.058;8.688;2022-12-05T01:12:41;17.13;;;13.95;;
51148;SDS011;37210;50.058;8.688;2022-12-05T01:15:29;17.17;;;15.02;;
51148;SDS011;37210;50.058;8.688;2022-12-05T01:18:17;16.88;;;14.77;;
51148;SDS011;37210;50.058;8.688;2022-12-05T01:21:08;16.13;;;14.43;;
51148;SDS011;37210;50.058;8.688;2022-12-05T01:23:57;17.35;;;15.18;;
51148;SDS011;37210;50.058;8.688;2022-12-05T01:26:45;17.02;;;15.07;;
51148;SDS011;37210;50.058;8.688;2022-12-05T01:29:33;17.70;;;15.82;;
51148;SDS011;37210;50.058;8.688;2022-12-05T01:32:21;17.80;;;15.45;;
51148;SDS011;37210;50.058;8.688;2022-12-05T01:35:09;18.38;;;15.77;;
51148;SDS011;37210;50.058;8.688;2022-12-05T01:37:58;19.73;;;16.10;;
51148;SDS011;37210;50.058;8.688;2022-12-05T01:40:46;21.30;;;15.85;;
51148;SDS011;37210;50.058;8.688;2022-12-05T01:46:43;16.93;;;15.13;;
51148;SDS011;37210;50.058;8.688;2022-12-05T01:49:34;18.20;;;15.43;;
51148;SDS011;37210;50.058;8.688;2022-12-05T01:52:27;17.20;;;15.32;;
51148;SDS011;37210;50.058;8.688;2022-12-05T01:55:19;19.95;;;15.70;;
51148;SDS011;37210;50.058;8.688;2022-12-05T01:58:07;20.17;;;15.60;;
51148;SDS011;37210;50.058;8.688;2022-12-05T02:01:00;18.58;;;16.05;;
51148;SDS011;37210;50.058;8.688;2022-12-05T02:03:49;18.30;;;15.45;;
51148;SDS011;37210;50.058;8.688;2022-12-05T02:06:40;18.67;;;16.13;;
51148;SDS011;37210;50.058;8.688;2022-12-05T02:09:29;17.50;;;15.52;;
51148;SDS011;37210;50.058;8.688;2022-12-05T02:12:18;18.25;;;15.15;;
51148;SDS011;37210;50.058;8.688;2022-12-05T02:15:13;17.10;;;15.30;;
51148;SDS011;37210;50.058;8.688;2022-12-05T02:18:19;17.17;;;14.82;;
51148;SDS011;37210;50.058;8.688;2022-12-05T02:21:26;17.25;;;15.13;;
51148;SDS011;37210;50.058;8.688;2022-12-05T02:24:46;16.98;;;15.20;;
51148;SDS011;37210;50.058;8.688;2022-12-05T02:28:17;17.23;;;15.38;;
51148;SDS011;37210;50.058;8.688;2022-12-05T02:31:33;18.00;;;15.60;;
51148;SDS011;37210;50.058;8.688;2022-12-05T02:34:33;19.60;;;15.40;;
51148;SDS011;37210;50.058;8.688;2022-12-05T02:37:31;17.83;;;15.93;;
51148;SDS011;37210;50.058;8.688;2022-12-05T02:40:32;16.63;;;14.88;;
51148;SDS011;37210;50.058;8.688;2022-12-05T02:43:31;19.42;;;15.07;;
51148;SDS011;37210;50.058;8.688;2022-12-05T02:46:25;18.38;;;16.45;;
51148;SDS011;37210;50.058;8.688;2022-12-05T02:49:19;19.33;;;15.48;;
51148;SDS011;37210;50.058;8.688;2022-12-05T02:52:12;19.10;;;15.48;;
51148;SDS011;37210;50.058;8.688;2022-12-05T02:55:03;18.17;;;15.98;;
51148;SDS011;37210;50.058;8.688;2022-12-05T02:57:55;17.83;;;15.05;;
51148;SDS011;37210;50.058;8.688;2022-12-05T03:00:49;17.88;;;15.93;;
51148;SDS011;37210;50.058;8.688;2022-12-05T03:03:42;18.15;;;16.23;;
51148;SDS011;37210;50.058;8.688;2022-12-05T03:06:32;17.52;;;15.57;;
51148;SDS011;37210;50.058;8.688;2022-12-05T03:09:27;18.65;;;16.23;;
51148;SDS011;37210;50.058;8.688;2022-12-05T03:12:21;19.45;;;15.70;;
51148;SDS011;37210;50.058;8.688;2022-12-05T03:15:13;18.23;;;14.82;;
51148;SDS011;37210;50.058;8.688;2022-12-05T03:18:08;18.00;;;16.02;;
51148;SDS011;37210;50.058;8.688;2022-12-05T03:21:04;21.65;;;15.68;;
51148;SDS011;37210;50.058;8.688;2022-12-05T03:24:04;18.42;;;15.82;;
51148;SDS011;37210;50.058;8.688;2022-12-05T03:27:00;18.23;;;15.60;;
51148;SDS011;37210;50.058;8.688;2022-12-05T03:30:01;19.50;;;15.35;;
51148;SDS011;37210;50.058;8.688;2022-12-05T03:32:54;17.25;;;15.05;;
51148;SDS011;37210;50.058;8.688;2022-12-05T03:35:55;18.25;;;15.73;;
51148;SDS011;37210;50.058;8.688;2022-12-05T03:38:54;18.30;;;16.10;;
51148;SDS011;37210;50.058;8.688;2022-12-05T03:41:53;17.67;;;15.48;;
51148;SDS011;37210;50.058;8.688;2022-12-05T03:44:48;18.27;;;15.93;;
51148;SDS011;37210;50.058;8.688;2022-12-05T03:47:44;19.13;;;17.08;;
51148;SDS011;37210;50.058;8.688;2022-12-05T03:50:40;18.75;;;16.42;;
51148;SDS011;37210;50.058;8.688;2022-12-05T03:53:34;17.63;;;15.55;;
51148;SDS011;37210;50.058;8.688;2022-12-05T03:56:29;17.77;;;15.68;;
51148;SDS011;37210;50.058;8.688;2022-12-05T03:59:27;18.33;;;16.33;;
51148;SDS011;37210;50.058;8.688;2022-12-05T04:02:23;18.83;;;15.93;;
51148;SDS011;37210;50.058;8.688;2022-12-05T04:05:19;18.10;;;15.40;;
51148;SDS011;37210;50.058;8.688;2022-12-05T04:08:15;19.38;;;17.13;;
51148;SDS011;37210;50.058;8.688;2022-12-05T04:11:09;20.05;;;15.85;;
51148;SDS011;37210;50.058;8.688;2022-12-05T04:14:05;19.45;;;16.25;;
51148;SDS011;37210;50.058;8.688;2022-12-05T04:16:59;17.08;;;15.25;;
51148;SDS011;37210;50.058;8.688;2022-12-05T04:19:52;17.98;;;14.85;;
51148;SDS011;37210;50.058;8.688;2022-12-05T04:23:03;20.70;;;15.70;;
51148;SDS011;37210;50.058;8.688;2022-12-05T04:25:54;19.20;;;15.75;;
51148;SDS011;37210;50.058;8.688;2022-12-05T04:28:50;19.30;;;16.20;;
51148;SDS011;37210;50.058;8.688;2022-12-05T04:31:48;21.45;;;16.35;;
51148;SDS011;37210;50.058;8.688;2022-12-05T04:34:46;21.60;;;15.95;;
51148;SDS011;37210;50.058;8.688;2022-12-05T04:37:44;17.33;;;15.18;;
51148;SDS011;37210;50.058;8.688;2022-12-05T04:40:38;19.50;;;15.60;;
51148;SDS011;37210;50.058;8.688;2022-12-05T04:43:39;19.50;;;15.05;;
51148;SDS011;37210;50.058;8.688;2022-12-05T04:46:33;20.50;;;15.32;;
51148;SDS011;37210;50.058;8.688;2022-12-05T04:49:25;20.58;;;15.70;;
51148;SDS011;37210;50.058;8.688;2022-12-05T04:52:18;19.67;;;15.20;;
51148;SDS011;37210;50.058;8.688;2022-12-05T04:55:08;19.83;;;15.13;;
51148;SDS011;37210;50.058;8.688;2022-12-05T04:58:03;18.40;;;16.38;;
51148;SDS011;37210;50.058;8.688;2022-12-05T05:00:57;18.98;;;16.10;;
51148;SDS011;37210;50.058;8.688;2022-12-05T05:06:45;18.05;;;15.40;;
51148;SDS011;37210;50.058;8.688;2022-12-05T05:09:34;20.42;;;16.63;;
51148;SDS011;37210;50.058;8.688;2022-12-05T05:12:23;20.95;;;16.15;;
51148;SDS011;37210;50.058;8.688;2022-12-05T05:15:11;21.42;;;16.35;;
51148;SDS011;37210;50.058;8.688;2022-12-05T05:17:59;19.40;;;16.40;;
51148;SDS011;37210;50.058;8.688;2022-12-05T05:20:47;20.65;;;16.60;;
51148;SDS011;37210;50.058;8.688;2022-12-05T05:23:35;21.50;;;16.63;;
51148;SDS011;37210;50.058;8.688;2022-12-05T05:26:27;21.50;;;17.55;;
51148;SDS011;37210;50.058;8.688;2022-12-05T05:29:17;22.30;;;17.30;;
51148;SDS011;37210;50.058;8.688;2022-12-05T05:32:05;21.23;;;17.05;;
51148;SDS011;37210;50.058;8.688;2022-12-05T05:34:53;23.02;;;17.35;;
51148;SDS011;37210;50.058;8.688;2022-12-05T05:37:41;21.70;;;16.85;;
51148;SDS011;37210;50.058;8.688;2022-12-05T05:40:29;24.27;;;18.17;;
51148;SDS011;37210;50.058;8.688;2022-12-05T05:43:18;22.55;;;16.92;;
51148;SDS011;37210;50.058;8.688;2022-12-05T05:46:06;22.40;;;17.90;;
51148;SDS011;37210;50.058;8.688;2022-12-05T05:48:54;25.88;;;17.80;;
51148;SDS011;37210;50.058;8.688;2022-12-05T05:51:43;22.02;;;17.55;;
51148;SDS011;37210;50.058;8.688;2022-12-05T05:54:31;23.40;;;19.50;;
51148;SDS011;37210;50.058;8.688;2022-12-05T05:57:19;25.00;;;17.63;;
51148;SDS011;37210;50.058;8.688;2022-12-05T06:00:09;20.38;;;17.27;;
51148;SDS011;37210;50.058;8.688;2022-12-05T06:02:58;20.98;;;17.52;;
51148;SDS011;37210;50.058;8.688;2022-12-05T06:05:54;21.00;;;16.90;;
51148;SDS011;37210;50.058;8.688;2022-12-05T06:08:43;26.33;;;17.53;;
51148;SDS011;37210;50.058;8.688;2022-12-05T06:11:32;22.88;;;17.27;;
51148;SDS011;37210;50.058;8.688;2022-12-05T06:14:20;24.95;;;18.25;;
51148;SDS011;37210;50.058;8.688;2022-12-05T06:17:10;22.10;;;17.30;;
51148;SDS011;37210;50.058;8.688;2022-12-05T06:19:59;22.52;;;16.90;;
51148;SDS011;37210;50.058;8.688;2022-12-05T06:22:47;21.58;;;16.73;;
51148;SDS011;37210;50.058;8.688;2022-12-05T06:25:37;23.08;;;17.40;;
51148;SDS011;37210;50.058;8.688;2022-12-05T06:28:25;24.45;;;17.55;;
51148;SDS011;37210;50.058;8.688;2022-12-05T06:31:14;23.30;;;17.65;;
51148;SDS011;37210;50.058;8.688;2022-12-05T06:34:06;23.05;;;17.45;;
51148;SDS011;37210;50.058;8.688;2022-12-05T06:36:54;24.48;;;17.52;;
51148;SDS011;37210;50.058;8.688;2022-12-05T06:39:42;24.13;;;17.13;;
51148;SDS011;37210;50.058;8.688;2022-12-05T06:42:30;24.67;;;18.75;;
51148;SDS011;37210;50.058;8.688;2022-12-05T06:45:17;28.48;;;18.38;;
51148;SDS011;37210;50.058;8.688;2022-12-05T06:48:06;23.73;;;17.85;;
51148;SDS011;37210;50.058;8.688;2022-12-05T06:50:58;23.23;;;17.58;;
51148;SDS011;37210;50.058;8.688;2022-12-05T06:53:46;24.70;;;17.80;;
51148;SDS011;37210;50.058;8.688;2022-12-05T06:56:34;23.63;;;18.52;;
51148;SDS011;37210;50.058;8.688;2022-12-05T06:59:22;22.63;;;17.98;;
51148;SDS011;37210;50.058;8.688;2022-12-05T07:02:10;22.42;;;18.17;;
51148;SDS011;37210;50.058;8.688;2022-12-05T07:04:58;22.40;;;17.95;;
51148;SDS011;37210;50.058;8.688;2022-12-05T07:07:47;24.30;;;18.90;;
51148;SDS011;37210;50.058;8.688;2022-12-05T07:10:35;29.73;;;18.85;;
51148;SDS011;37210;50.058;8.688;2022-12-05T07:13:24;23.52;;;17.40;;
51148;SDS011;37210;50.058;8.688;2022-12-05T07:16:12;29.15;;;21.38;;
51148;SDS011;37210;50.058;8.688;2022-12-05T07:19:00;26.95;;;20.55;;
51148;SDS011;37210;50.058;8.688;2022-12-05T07:21:48;24.50;;;19.88;;
51148;SDS011;37210;50.058;8.688;2022-12-05T07:24:37;25.40;;;17.70;;
51148;SDS011;37210;50.058;8.688;2022-12-05T07:27:25;22.23;;;17.92;;
51148;SDS011;37210;50.058;8.688;2022-12-05T07:30:14;21.63;;;17.70;;
51148;SDS011;37210;50.058;8.688;2022-12-05T07:33:02;24.90;;;18.02;;
51148;SDS011;37210;50.058;8.688;2022-12-05T07:35:50;28.90;;;19.58;;
51148;SDS011;37210;50.058;8.688;2022-12-05T07:38:38;21.90;;;17.05;;
51148;SDS011;37210;50.058;8.688;2022-12-05T07:41:29;21.77;;;17.63;;
51148;SDS011;37210;50.058;8.688;2022-12-05T07:44:18;23.92;;;18.35;;
51148;SDS011;37210;50.058;8.688;2022-12-05T07:47:06;24.20;;;18.30;;
51148;SDS011;37210;50.058;8.688;2022-12-05T07:49:54;29.38;;;19.85;;
51148;SDS011;37210;50.058;8.688;2022-12-05T07:52:42;24.85;;;19.92;;
51148;SDS011;37210;50.058;8.688;2022-12-05T07:55:30;25.10;;;19.30;;
51148;SDS011;37210;50.058;8.688;2022-12-05T07:58:19;27.52;;;20.35;;
51148;SDS011;37210;50.058;8.688;2022-12-05T08:01:07;27.10;;;19.45;;
51148;SDS011;37210;50.058;8.688;2022-12-05T08:03:58;27.08;;;18.75;;
51148;SDS011;37210;50.058;8.688;2022-12-05T08:06:46;25.65;;;18.42;;
51148;SDS011;37210;50.058;8.688;2022-12-05T08:09:34;29.08;;;18.83;;
51148;SDS011;37210;50.058;8.688;2022-12-05T08:12:22;27.20;;;19.55;;
51148;SDS011;37210;50.058;8.688;2022-12-05T08:15:11;26.02;;;19.10;;
51148;SDS011;37210;50.058;8.688;2022-12-05T08:17:59;27.73;;;19.83;;
51148;SDS011;37210;50.058;8.688;2022-12-05T08:20:46;28.80;;;20.75;;
51148;SDS011;37210;50.058;8.688;2022-12-05T08:23:35;30.70;;;20.35;;
51148;SDS011;37210;50.058;8.688;2022-12-05T08:26:24;31.23;;;20.88;;
51148;SDS011;37210;50.058;8.688;2022-12-05T08:29:15;30.35;;;20.25;;
51148;SDS011;37210;50.058;8.688;2022-12-05T08:32:08;28.73;;;21.08;;
51148;SDS011;37210;50.058;8.688;2022-12-05T08:34:57;33.05;;;21.67;;
51148;SDS011;37210;50.058;8.688;2022-12-05T08:37:45;30.05;;;21.05;;
51148;SDS011;37210;50.058;8.688;2022-12-05T08:40:32;27.90;;;20.90;;
51148;SDS011;37210;50.058;8.688;2022-12-05T08:43:20;28.77;;;21.10;;
51148;SDS011;37210;50.058;8.688;2022-12-05T08:46:09;28.08;;;20.60;;
51148;SDS011;37210;50.058;8.688;2022-12-05T08:48:59;31.35;;;22.02;;
51148;SDS011;37210;50.058;8.688;2022-12-05T08:51:47;29.42;;;20.77;;
51148;SDS011;37210;50.058;8.688;2022-12-05T08:54:35;28.38;;;21.20;;
51148;SDS011;37210;50.058;8.688;2022-12-05T08:57:23;32.35;;;20.15;;
51148;SDS011;37210;50.058;8.688;2022-12-05T09:00:11;31.92;;;21.10;;
51148;SDS011;37210;50.058;8.688;2022-12-05T09:03:00;31.23;;;21.25;;
51148;SDS011;37210;50.058;8.688;2022-12-05T09:05:49;33.33;;;22.50;;
51148;SDS011;37210;50.058;8.688;2022-12-05T09:08:37;33.50;;;22.65;;
51148;SDS011;37210;50.058;8.688;2022-12-05T09:11:28;29.70;;;20.98;;
51148;SDS011;37210;50.058;8.688;2022-12-05T09:14:19;31.27;;;21.83;;
51148;SDS011;37210;50.058;8.688;2022-12-05T09:17:08;33.97;;;22.98;;
51148;SDS011;37210;50.058;8.688;2022-12-05T09:19:56;30.00;;;21.55;;
51148;SDS011;37210;50.058;8.688;2022-12-05T09:22:45;30.25;;;21.77;;
51148;SDS011;37210;50.058;8.688;2022-12-05T09:25:33;28.45;;;20.98;;
51148;SDS011;37210;50.058;8.688;2022-12-05T09:28:21;29.58;;;21.75;;
51148;SDS011;37210;50.058;8.688;2022-12-05T09:31:09;33.65;;;22.63;;
51148;SDS011;37210;50.058;8.688;2022-12-05T09:34:00;34.97;;;23.02;;
51148;SDS011;37210;50.058;8.688;2022-12-05T09:36:48;31.80;;;21.80;;
51148;SDS011;37210;50.058;8.688;2022-12-05T09:39:39;31.58;;;21.73;;
51148;SDS011;37210;50.058;8.688;2022-12-05T09:42:33;27.63;;;20.10;;
51148;SDS011;37210;50.058;8.688;2022-12-05T09:45:27;32.63;;;20.75;;
51148;SDS011;37210;50.058;8.688;2022-12-05T09:48:23;28.67;;;20.67;;
51148;SDS011;37210;50.058;8.688;2022-12-05T09:51:11;26.60;;;21.20;;
51148;SDS011;37210;50.058;8.688;2022-12-05T09:53:59;27.83;;;20.20;;
51148;SDS011;37210;50.058;8.688;2022-12-05T09:56:49;27.13;;;20.25;;
51148;SDS011;37210;50.058;8.688;2022-12-05T09:59:40;26.25;;;20.10;;
51148;SDS011;37210;50.058;8.688;2022-12-05T10:02:31;27.08;;;18.95;;
51148;SDS011;37210;50.058;8.688;2022-12-05T10:05:35;22.25;;;17.02;;
51148;SDS011;37210;50.058;8.688;2022-12-05T10:08:31;26.85;;;17.70;;
51148;SDS011;37210;50.058;8.688;2022-12-05T10:11:30;24.52;;;18.10;;
51148;SDS011;37210;50.058;8.688;2022-12-05T10:14:31;25.02;;;17.23;;
51148;SDS011;37210;50.058;8.688;2022-12-05T10:17:32;22.05;;;16.27;;
51148;SDS011;37210;50.058;8.688;2022-12-05T10:20:23;22.67;;;17.42;;
51148;SDS011;37210;50.058;8.688;2022-12-05T10:23:19;20.45;;;15.70;;
51148;SDS011;37210;50.058;8.688;2022-12-05T10:26:14;19.42;;;14.75;;
51148;SDS011;37210;50.058;8.688;2022-12-05T10:29:06;18.70;;;14.65;;
51148;SDS011;37210;50.058;8.688;2022-12-05T10:32:12;20.80;;;14.32;;
51148;SDS011;37210;50.058;8.688;2022-12-05T10:35:13;17.73;;;13.63;;
51148;SDS011;37210;50.058;8.688;2022-12-05T10:38:04;16.75;;;14.05;;
51148;SDS011;37210;50.058;8.688;2022-12-05T10:40:57;17.65;;;14.30;;
51148;SDS011;37210;50.058;8.688;2022-12-05T10:43:53;19.05;;;13.85;;
51148;SDS011;37210;50.058;8.688;2022-12-05T10:46:44;17.15;;;13.23;;
51148;SDS011;37210;50.058;8.688;2022-12-05T10:49:34;15.48;;;13.25;;
51148;SDS011;37210;50.058;8.688;2022-12-05T10:52:24;16.23;;;12.98;;
51148;SDS011;37210;50.058;8.688;2022-12-05T10:55:13;16.25;;;12.60;;
51148;SDS011;37210;50.058;8.688;2022-12-05T10:58:08;15.52;;;12.80;;
51148;SDS011;37210;50.058;8.688;2022-12-05T11:01:06;14.68;;;11.70;;
51148;SDS011;37210;50.058;8.688;2022-12-05T11:03:57;15.25;;;12.02;;
51148;SDS011;37210;50.058;8.688;2022-12-05T11:06:50;16.17;;;11.98;;
51148;SDS011;37210;50.058;8.688;2022-12-05T11:09:43;15.55;;;11.60;;
51148;SDS011;37210;50.058;8.688;2022-12-05T11:12:35;12.10;;;10.88;;
51148;SDS011;37210;50.058;8.688;2022-12-05T11:15:25;13.48;;;11.38;;
51148;SDS011;37210;50.058;8.688;2022-12-05T11:18:21;13.05;;;10.50;;
51148;SDS011;37210;50.058;8.688;2022-12-05T11:21:17;12.23;;;10.48;;
51148;SDS011;37210;50.058;8.688;2022-12-05T11:24:18;13.25;;;10.07;;
51148;SDS011;37210;50.058;8.688;2022-12-05T11:27:19;12.20;;;10.90;;
51148;SDS011;37210;50.058;8.688;2022-12-05T11:30:15;10.98;;;9.73;;
51148;SDS011;37210;50.058;8.688;2022-12-05T11:33:09;13.02;;;10.32;;
51148;SDS011;37210;50.058;8.688;2022-12-05T11:36:10;11.50;;;10.32;;
51148;SDS011;37210;50.058;8.688;2022-12-05T11:39:05;13.05;;;11.65;;
51148;SDS011;37210;50.058;8.688;2022-12-05T11:45:24;10.95;;;9.20;;
51148;SDS011;37210;50.058;8.688;2022-12-05T11:48:33;11.23;;;9.73;;
51148;SDS011;37210;50.058;8.688;2022-12-05T11:51:37;10.67;;;9.53;;
51148;SDS011;37210;50.058;8.688;2022-12-05T11:54:37;12.32;;;11.07;;
51148;SDS011;37210;50.058;8.688;2022-12-05T11:57:49;11.77;;;9.30;;
51148;SDS011;37210;50.058;8.688;2022-12-05T12:01:06;10.07;;;9.07;;
51148;SDS011;37210;50.058;8.688;2022-12-05T12:04:30;13.10;;;9.27;;
51148;SDS011;37210;50.058;8.688;2022-12-05T12:07:38;11.13;;;9.07;;
51148;SDS011;37210;50.058;8.688;2022-12-05T12:10:46;12.13;;;8.82;;
51148;SDS011;37210;50.058;8.688;2022-12-05T12:13:58;10.60;;;9.50;;
51148;SDS011;37210;50.058;8.688;2022-12-05T12:17:00;13.50;;;10.70;;
51148;SDS011;37210;50.058;8.688;2022-12-05T12:20:06;11.35;;;10.13;;
51148;SDS011;37210;50.058;8.688;2022-12-05T12:23:27;12.50;;;10.35;;
51148;SDS011;37210;50.058;8.688;2022-12-05T12:26:31;11.68;;;10.52;;
51148;SDS011;37210;50.058;8.688;2022-12-05T12:29:40;13.07;;;10.52;;
51148;SDS011;37210;50.058;8.688;2022-12-05T12:32:49;15.15;;;11.80;;
51148;SDS011;37210;50.058;8.688;2022-12-05T12:35:49;11.70;;;9.70;;
51148;SDS011;37210;50.058;8.688;2022-12-05T12:38:57;14.48;;;11.10;;
51148;SDS011;37210;50.058;8.688;2022-12-05T12:42:15;11.80;;;10.60;;
51148;SDS011;37210;50.058;8.688;2022-12-05T12:45:21;15.50;;;11.90;;
51148;SDS011;37210;50.058;8.688;2022-12-05T12:48:36;15.48;;;11.30;;
51148;SDS011;37210;50.058;8.688;2022-12-05T12:51:46;14.32;;;11.25;;
51148;SDS011;37210;50.058;8.688;2022-12-05T12:54:57;16.33;;;13.00;;
51148;SDS011;37210;50.058;8.688;2022-12-05T12:58:06;19.00;;;12.85;;
51148;SDS011;37210;50.058;8.688;2022-12-05T13:01:15;22.87;;;18.47;;
51148;SDS011;37210;50.058;8.688;2022-12-05T13:04:18;26.17;;;19.33;;
51148;SDS011;37210;50.058;8.688;2022-12-05T13:07:14;21.08;;;15.75;;
51148;SDS011;37210;50.058;8.688;2022-12-05T13:10:11;18.67;;;14.07;;
51148;SDS011;37210;50.058;8.688;2022-12-05T13:13:15;17.42;;;14.23;;
51148;SDS011;37210;50.058;8.688;2022-12-05T13:16:09;16.73;;;14.93;;
51148;SDS011;37210;50.058;8.688;2022-12-05T13:19:13;18.55;;;15.73;;
51148;SDS011;37210;50.058;8.688;2022-12-05T13:22:13;19.73;;;15.32;;
51148;SDS011;37210;50.058;8.688;2022-12-05T13:25:05;18.15;;;15.18;;
51148;SDS011;37210;50.058;8.688;2022-12-05T13:28:01;20.30;;;14.82;;
51148;SDS011;37210;50.058;8.688;2022-12-05T13:30:53;18.42;;;14.25;;
51148;SDS011;37210;50.058;8.688;2022-12-05T13:33:49;20.13;;;15.40;;
51148;SDS011;37210;50.058;8.688;2022-12-05T13:36:37;18.88;;;14.95;;
51148;SDS011;37210;50.058;8.688;2022-12-05T13:39:49;19.63;;;15.05;;
51148;SDS011;37210;50.058;8.688;2022-12-05T13:42:58;18.85;;;14.48;;
51148;SDS011;37210;50.058;8.688;2022-12-05T13:45:59;19.77;;;14.50;;
51148;SDS011;37210;50.058;8.688;2022-12-05T13:48:58;18.10;;;14.52;;
51148;SDS011;37210;50.058;8.688;2022-12-05T13:51:53;18.55;;;15.02;;
51148;SDS011;37210;50.058;8.688;2022-12-05T13:54:55;19.50;;;13.90;;
51148;SDS011;37210;50.058;8.688;2022-12-05T13:57:52;17.55;;;14.32;;
51148;SDS011;37210;50.058;8.688;2022-12-05T14:00:42;18.27;;;14.05;;
51148;SDS011;37210;50.058;8.688;2022-12-05T14:06:56;17.90;;;14.00;;
51148;SDS011;37210;50.058;8.688;2022-12-05T14:09:48;18.45;;;13.82;;
51148;SDS011;37210;50.058;8.688;2022-12-05T14:12:49;15.55;;;12.88;;
51148;SDS011;37210;50.058;8.688;2022-12-05T14:15:43;17.85;;;14.27;;
51148;SDS011;37210;50.058;8.688;2022-12-05T14:18:34;16.48;;;13.20;;
51148;SDS011;37210;50.058;8.688;2022-12-05T14:21:35;16.85;;;12.00;;
51148;SDS011;37210;50.058;8.688;2022-12-05T14:27:40;16.98;;;12.57;;
51148;SDS011;37210;50.058;8.688;2022-12-05T14:30:40;21.25;;;16.33;;
51148;SDS011;37210;50.058;8.688;2022-12-05T14:33:40;22.73;;;19.38;;
51148;SDS011;37210;50.058;8.688;2022-12-05T14:36:28;18.48;;;14.38;;
51148;SDS011;37210;50.058;8.688;2022-12-05T14:39:20;16.92;;;13.38;;
51148;SDS011;37210;50.058;8.688;2022-12-05T14:42:21;17.60;;;12.63;;
51148;SDS011;37210;50.058;8.688;2022-12-05T14:45:26;21.88;;;14.32;;
51148;SDS011;37210;50.058;8.688;2022-12-05T14:48:24;17.83;;;13.20;;
51148;SDS011;37210;50.058;8.688;2022-12-05T14:51:42;18.50;;;12.30;;
51148;SDS011;37210;50.058;8.688;2022-12-05T14:54:31;17.38;;;13.02;;
51148;SDS011;37210;50.058;8.688;2022-12-05T14:57:19;17.38;;;13.40;;
51148;SDS011;37210;50.058;8.688;2022-12-05T15:00:13;18.08;;;12.55;;
51148;SDS011;37210;50.058;8.688;2022-12-05T15:03:19;19.20;;;14.60;;
51148;SDS011;37210;50.058;8.688;2022-12-05T15:09:04;15.48;;;12.45;;
51148;SDS011;37210;50.058;8.688;2022-12-05T15:11:55;13.82;;;12.20;;
51148;SDS011;37210;50.058;8.688;2022-12-05T15:14:48;18.08;;;12.52;;
51148;SDS011;37210;50.058;8.688;2022-12-05T15:17:48;16.30;;;13.43;;
51148;SDS011;37210;50.058;8.688;2022-12-05T15:20:41;21.05;;;14.93;;
51148;SDS011;37210;50.058;8.688;2022-12-05T15:23:39;17.90;;;14.10;;
51148;SDS011;37210;50.058;8.688;2022-12-05T15:26:31;24.60;;;15.38;;
51148;SDS011;37210;50.058;8.688;2022-12-05T15:29:26;19.90;;;15.30;;
51148;SDS011;37210;50.058;8.688;2022-12-05T15:32:20;17.30;;;14.15;;
51148;SDS011;37210;50.058;8.688;2022-12-05T15:35:13;22.88;;;17.75;;
51148;SDS011;37210;50.058;8.688;2022-12-05T15:38:04;39.95;;;34.45;;
51148;SDS011;37210;50.058;8.688;2022-12-05T15:41:02;26.95;;;21.27;;
51148;SDS011;37210;50.058;8.688;2022-12-05T15:43:53;20.83;;;17.20;;
51148;SDS011;37210;50.058;8.688;2022-12-05T15:46:43;22.85;;;17.45;;
51148;SDS011;37210;50.058;8.688;2022-12-05T15:49:38;24.25;;;17.70;;
51148;SDS011;37210;50.058;8.688;2022-12-05T15:52:28;22.80;;;16.88;;
51148;SDS011;37210;50.058;8.688;2022-12-05T15:55:25;21.60;;;17.30;;
51148;SDS011;37210;50.058;8.688;2022-12-05T15:58:22;21.23;;;17.77;;
51148;SDS011;37210;50.058;8.688;2022-12-05T16:01:14;19.58;;;15.63;;
51148;SDS011;37210;50.058;8.688;2022-12-05T16:04:11;20.05;;;16.80;;
51148;SDS011;37210;50.058;8.688;2022-12-05T16:09:57;19.77;;;15.98;;
51148;SDS011;37210;50.058;8.688;2022-12-05T16:12:48;20.33;;;16.27;;
51148;SDS011;37210;50.058;8.688;2022-12-05T16:15:41;20.95;;;16.52;;
51148;SDS011;37210;50.058;8.688;2022-12-05T16:18:33;20.02;;;16.75;;
51148;SDS011;37210;50.058;8.688;2022-12-05T16:21:26;20.33;;;16.00;;
51148;SDS011;37210;50.058;8.688;2022-12-05T16:24:18;22.98;;;17.35;;
51148;SDS011;37210;50.058;8.688;2022-12-05T16:27:12;23.20;;;17.88;;
51148;SDS011;37210;50.058;8.688;2022-12-05T16:30:09;19.33;;;17.35;;
51148;SDS011;37210;50.058;8.688;2022-12-05T16:33:10;24.23;;;18.80;;
51148;SDS011;37210;50.058;8.688;2022-12-05T16:36:07;21.95;;;18.65;;
51148;SDS011;37210;50.058;8.688;2022-12-05T16:39:00;24.73;;;19.17;;
51148;SDS011;37210;50.058;8.688;2022-12-05T16:41:51;21.77;;;18.98;;
51148;SDS011;37210;50.058;8.688;2022-12-05T16:47:54;22.17;;;18.17;;
51148;SDS011;37210;50.058;8.688;2022-12-05T16:50:45;21.05;;;16.88;;
51148;SDS011;37210;50.058;8.688;2022-12-05T16:53:35;23.25;;;17.48;;
51148;SDS011;37210;50.058;8.688;2022-12-05T16:56:25;21.33;;;18.80;;
51148;SDS011;37210;50.058;8.688;2022-12-05T16:59:21;20.05;;;17.30;;
51148;SDS011;37210;50.058;8.688;2022-12-05T17:02:16;19.50;;;15.98;;
51148;SDS011;37210;50.058;8.688;2022-12-05T17:05:10;19.48;;;16.20;;
51148;SDS011;37210;50.058;8.688;2022-12-05T17:08:00;17.63;;;15.25;;
51148;SDS011;37210;50.058;8.688;2022-12-05T17:10:48;19.55;;;15.98;;
51148;SDS011;37210;50.058;8.688;2022-12-05T17:13:36;18.77;;;16.15;;
51148;SDS011;37210;50.058;8.688;2022-12-05T17:16:25;18.25;;;14.95;;
51148;SDS011;37210;50.058;8.688;2022-12-05T17:19:13;21.58;;;17.05;;
51148;SDS011;37210;50.058;8.688;2022-12-05T17:22:01;18.63;;;16.67;;